createdAt,value
2023-04-17T00:02:22.458Z,15.27
2023-04-17T00:04:49.354Z,21.60
2023-04-17T00:07:16.110Z,18.55
2023-04-17T00:09:42.552Z,19.67
2023-04-17T00:12:09.044Z,17.00
2023-04-17T00:14:35.525Z,18.70
2023-04-17T00:17:01.996Z,19.08
2023-04-17T00:19:28.468Z,21.63
2023-04-17T00:21:54.882Z,17.88
2023-04-17T00:24:21.327Z,17.80
2023-04-17T00:26:47.792Z,20.02
2023-04-17T00:29:14.247Z,17.83
2023-04-17T00:31:40.852Z,20.63
2023-04-17T00:34:07.299Z,20.23
2023-04-17T00:36:33.800Z,20.45
2023-04-17T00:39:00.599Z,22.38
2023-04-17T00:41:27.163Z,18.77
2023-04-17T00:43:53.788Z,21.92
2023-04-17T00:46:20.646Z,16.33
2023-04-17T00:48:47.703Z,17.02
2023-04-17T00:51:14.294Z,16.75
2023-04-17T00:53:40.826Z,17.73
2023-04-17T00:56:07.499Z,15.23
2023-04-17T00:58:35.769Z,16.98
2023-04-17T01:01:02.296Z,16.80
2023-04-17T01:03:30.168Z,16.85
2023-04-17T01:05:58.773Z,13.95
2023-04-17T01:08:25.239Z,16.75
2023-04-17T01:10:51.675Z,15.93
2023-04-17T01:13:18.280Z,18.20
2023-04-17T01:15:46.017Z,17.38
2023-04-17T01:18:12.641Z,14.82
2023-04-17T01:20:39.185Z,15.18
2023-04-17T01:23:05.818Z,15.63
2023-04-17T01:25:32.370Z,13.75
2023-04-17T01:27:58.842Z,16.73
2023-04-17T01:30:25.891Z,14.55
2023-04-17T01:32:53.783Z,13.43
2023-04-17T01:35:20.407Z,14.65
2023-04-17T01:37:46.871Z,13.20
2023-04-17T01:40:13.705Z,15.68
2023-04-17T01:42:41.011Z,17.52
2023-04-17T01:45:07.792Z,15.95
2023-04-17T01:47:34.389Z,12.38
2023-04-17T01:50:01.282Z,13.23
2023-04-17T01:52:27.784Z,14.90
2023-04-17T01:54:54.246Z,12.57
2023-04-17T01:57:21.082Z,14.85
2023-04-17T01:59:47.557Z,14.82
2023-04-17T02:02:14.128Z,16.40
2023-04-17T02:04:40.862Z,14.50
2023-04-17T02:07:07.466Z,13.75
2023-04-17T02:09:33.938Z,14.95
2023-04-17T02:12:00.991Z,14.27
2023-04-17T02:14:27.714Z,13.57
2023-04-17T02:16:54.218Z,14.93
2023-04-17T02:19:21.413Z,15.13
2023-04-17T02:21:47.937Z,13.73
2023-04-17T02:24:14.457Z,13.18
2023-04-17T02:26:41.001Z,16.55
2023-04-17T02:29:07.784Z,12.27
2023-04-17T02:31:34.315Z,12.82
2023-04-17T02:34:00.905Z,16.30
2023-04-17T02:36:27.575Z,11.15
2023-04-17T02:38:54.142Z,14.05
2023-04-17T02:41:20.582Z,12.45
2023-04-17T02:43:47.067Z,15.93
2023-04-17T02:46:13.654Z,13.93
2023-04-17T02:48:40.225Z,15.55
2023-04-17T02:51:06.682Z,15.73
2023-04-17T02:53:33.129Z,14.98
2023-04-17T02:55:59.605Z,15.45
2023-04-17T02:58:26.351Z,15.55
2023-04-17T03:00:58.958Z,15.40
2023-04-17T03:03:27.145Z,15.50
2023-04-17T03:05:53.781Z,15.35
2023-04-17T03:08:20.683Z,16.98
2023-04-17T03:10:47.260Z,16.20
2023-04-17T03:13:13.738Z,14.20
2023-04-17T03:15:40.251Z,16.85
2023-04-17T03:18:06.744Z,15.07
2023-04-17T03:20:33.259Z,18.67
2023-04-17T03:22:59.930Z,16.42
2023-04-17T03:25:26.906Z,15.35
2023-04-17T03:27:56.836Z,13.60
2023-04-17T03:30:24.103Z,16.70
2023-04-17T03:32:55.498Z,15.15
2023-04-17T03:35:22.667Z,18.42
2023-04-17T03:37:49.227Z,20.52
2023-04-17T03:40:15.806Z,18.70
2023-04-17T03:42:42.290Z,16.10
2023-04-17T03:45:09.181Z,21.25
2023-04-17T03:47:35.686Z,15.52
2023-04-17T03:50:02.264Z,17.15
2023-04-17T03:52:28.730Z,19.98
2023-04-17T03:54:55.177Z,15.10
2023-04-17T03:57:21.681Z,18.73
2023-04-17T03:59:48.175Z,17.88
2023-04-17T04:02:14.968Z,19.42
2023-04-17T04:04:41.772Z,20.88
2023-04-17T04:07:08.703Z,24.67
2023-04-17T04:09:35.229Z,19.33
2023-04-17T04:12:01.955Z,20.15
2023-04-17T04:14:28.569Z,19.25
2023-04-17T04:16:55.094Z,20.33
2023-04-17T04:19:21.600Z,20.17
2023-04-17T04:21:48.259Z,21.58
2023-04-17T04:24:15.033Z,18.83
2023-04-17T04:26:42.337Z,19.60
2023-04-17T04:29:09.640Z,19.77
2023-04-17T04:31:37.898Z,22.00
2023-04-17T04:34:06.071Z,21.27
2023-04-17T04:36:36.247Z,18.88
2023-04-17T04:39:05.720Z,24.05
2023-04-17T04:41:33.967Z,21.92
2023-04-17T04:44:03.609Z,21.55
2023-04-17T04:46:30.108Z,22.17
2023-04-17T04:48:56.583Z,21.20
2023-04-17T04:51:23.072Z,22.48
2023-04-17T04:53:49.653Z,25.13
2023-04-17T04:56:16.147Z,25.20
2023-04-17T04:58:46.930Z,23.08
2023-04-17T05:01:13.575Z,22.80
2023-04-17T05:03:41.710Z,20.08
2023-04-17T05:06:09.485Z,20.15
2023-04-17T05:08:36.153Z,23.55
2023-04-17T05:11:03.635Z,20.63
2023-04-17T05:13:30.429Z,24.27
2023-04-17T05:15:57.413Z,23.95
2023-04-17T05:18:25.045Z,23.02
2023-04-17T05:20:51.829Z,21.98
2023-04-17T05:23:21.530Z,24.98
2023-04-17T05:25:48.063Z,25.27
2023-04-17T05:28:16.782Z,21.08
2023-04-17T05:30:44.000Z,21.50
2023-04-17T05:33:10.700Z,19.23
2023-04-17T05:35:37.272Z,26.38
2023-04-17T05:38:04.777Z,21.40
2023-04-17T05:40:31.255Z,22.85
2023-04-17T05:42:57.724Z,25.75
2023-04-17T05:45:25.671Z,24.33
2023-04-17T05:47:52.506Z,24.00
2023-04-17T05:50:19.063Z,22.50
2023-04-17T05:52:48.283Z,23.40
2023-04-17T05:55:14.723Z,24.00
2023-04-17T05:57:41.327Z,24.25
2023-04-17T06:00:11.082Z,25.52
2023-04-17T06:02:38.179Z,27.45
2023-04-17T06:05:06.942Z,26.88
2023-04-17T06:07:33.792Z,25.63
2023-04-17T06:10:00.700Z,29.42
2023-04-17T06:12:27.383Z,25.15
2023-04-17T06:14:53.958Z,27.35
2023-04-17T06:17:20.576Z,26.77
2023-04-17T06:19:47.060Z,31.17
2023-04-17T06:22:13.739Z,30.85
2023-04-17T06:24:40.459Z,26.02
2023-04-17T06:27:06.899Z,28.98
2023-04-17T06:29:33.397Z,25.48
2023-04-17T06:31:59.953Z,31.55
2023-04-17T06:34:26.435Z,27.33
2023-04-17T06:36:53.531Z,30.10
2023-04-17T06:39:20.090Z,28.60
2023-04-17T06:41:46.680Z,25.65
2023-04-17T06:44:13.169Z,26.83
2023-04-17T06:46:39.648Z,28.33
2023-04-17T06:49:06.182Z,29.70
2023-04-17T06:51:32.637Z,30.20
2023-04-17T06:53:59.468Z,30.80
2023-04-17T06:56:26.109Z,30.00
2023-04-17T06:58:53.149Z,28.63
2023-04-17T07:01:19.937Z,30.95
2023-04-17T07:03:46.715Z,35.08
2023-04-17T07:06:13.286Z,34.13
2023-04-17T07:08:39.751Z,32.75
2023-04-17T07:11:06.370Z,33.05
2023-04-17T07:13:33.260Z,29.83
2023-04-17T07:16:01.302Z,34.50
2023-04-17T07:18:29.590Z,34.53
2023-04-17T07:20:56.691Z,34.67
2023-04-17T07:23:23.736Z,34.72
2023-04-17T07:25:50.580Z,34.95
2023-04-17T07:28:17.623Z,32.53
2023-04-17T07:30:44.397Z,30.60
2023-04-17T07:33:10.972Z,36.90
2023-04-17T07:35:37.528Z,36.17
2023-04-17T07:38:04.387Z,32.63
2023-04-17T07:40:31.503Z,33.97
2023-04-17T07:42:58.007Z,32.17
2023-04-17T07:45:24.582Z,32.55
2023-04-17T07:47:51.400Z,36.63
2023-04-17T07:50:18.013Z,36.10
2023-04-17T07:52:44.516Z,32.20
2023-04-17T07:55:11.065Z,26.65
2023-04-17T07:57:42.416Z,33.22
2023-04-17T08:00:10.718Z,31.48
2023-04-17T08:02:37.311Z,28.75
2023-04-17T08:05:05.883Z,29.08
2023-04-17T08:07:32.540Z,32.85
2023-04-17T08:09:58.972Z,31.52
2023-04-17T08:12:25.470Z,29.88
2023-04-17T08:14:52.071Z,29.48
2023-04-17T08:17:22.891Z,33.47
2023-04-17T08:19:57.623Z,29.48
2023-04-17T08:22:25.455Z,28.05
2023-04-17T08:24:57.430Z,30.85
2023-04-17T08:27:24.922Z,29.45
2023-04-17T08:29:54.354Z,28.00
2023-04-17T08:32:21.450Z,28.42
2023-04-17T08:34:48.186Z,29.42
2023-04-17T08:37:14.702Z,29.58
2023-04-17T08:39:41.215Z,26.77
2023-04-17T08:42:09.976Z,30.02
2023-04-17T08:44:38.091Z,26.52
2023-04-17T08:47:09.083Z,27.65
2023-04-17T08:49:36.123Z,26.63
2023-04-17T08:52:04.259Z,25.70
2023-04-17T08:54:31.466Z,28.10
2023-04-17T08:56:58.013Z,29.42
2023-04-17T08:59:24.472Z,26.48
2023-04-17T09:02:04.730Z,33.58
2023-04-17T09:04:36.243Z,32.45
2023-04-17T09:07:03.317Z,30.45
2023-04-17T09:09:48.391Z,35.30
2023-04-17T09:12:15.532Z,27.80
2023-04-17T09:14:43.362Z,27.20
2023-04-17T09:17:09.851Z,30.83
2023-04-17T09:19:36.470Z,29.83
2023-04-17T09:22:19.478Z,25.40
2023-04-17T09:24:46.312Z,23.98
2023-04-17T09:27:22.706Z,27.75
2023-04-17T09:29:59.776Z,25.13
2023-04-17T09:32:26.641Z,27.65
2023-04-17T09:34:53.673Z,26.20
2023-04-17T09:37:20.968Z,29.90
2023-04-17T09:39:57.733Z,33.40
2023-04-17T09:42:24.573Z,26.85
2023-04-17T09:44:51.212Z,29.75
2023-04-17T09:47:18.899Z,26.88
2023-04-17T09:49:52.334Z,26.65
2023-04-17T09:52:19.953Z,26.55
2023-04-17T09:54:47.378Z,29.98
2023-04-17T09:57:13.892Z,27.17
2023-04-17T09:59:41.568Z,24.85
2023-04-17T10:02:12.597Z,28.00
2023-04-17T10:04:42.799Z,24.98
2023-04-17T10:07:09.710Z,22.25
2023-04-17T10:09:36.179Z,24.23
2023-04-17T10:12:05.538Z,25.25
2023-04-17T10:14:33.122Z,24.70
2023-04-17T10:16:59.793Z,24.95
2023-04-17T10:19:33.008Z,24.00
2023-04-17T10:22:20.904Z,24.92
2023-04-17T10:24:51.978Z,23.70
2023-04-17T10:27:29.227Z,27.85
2023-04-17T10:29:57.010Z,23.10
2023-04-17T10:32:29.065Z,22.50
2023-04-17T10:34:57.037Z,23.02
2023-04-17T10:37:46.449Z,24.63
2023-04-17T10:40:17.773Z,22.13
2023-04-17T10:43:01.331Z,20.75
2023-04-17T10:45:47.837Z,21.67
2023-04-17T10:48:21.991Z,27.80
2023-04-17T10:50:48.912Z,20.80
2023-04-17T10:53:34.124Z,20.08
2023-04-17T10:56:02.776Z,21.63
2023-04-17T10:58:31.645Z,18.48
2023-04-17T11:01:03.355Z,17.73
2023-04-17T11:03:30.915Z,20.23
2023-04-17T11:05:58.947Z,19.75
2023-04-17T11:08:25.745Z,16.45
2023-04-17T11:10:53.361Z,19.00
2023-04-17T11:13:19.831Z,18.73
2023-04-17T11:15:46.357Z,16.92
2023-04-17T11:18:13.213Z,19.27
2023-04-17T11:20:40.879Z,18.40
2023-04-17T11:23:07.473Z,17.13
2023-04-17T11:25:35.081Z,17.63
2023-04-17T11:28:02.494Z,17.02
2023-04-17T11:30:29.046Z,16.08
2023-04-17T11:32:57.762Z,16.77
2023-04-17T11:35:28.137Z,17.75
2023-04-17T11:38:08.421Z,20.77
2023-04-17T11:40:35.048Z,18.60
2023-04-17T11:43:08.118Z,19.15
2023-04-17T11:45:35.690Z,17.75
2023-04-17T11:48:02.677Z,19.35
2023-04-17T11:50:29.955Z,15.85
2023-04-17T11:52:57.475Z,14.32
2023-04-17T11:55:24.080Z,14.88
2023-04-17T11:57:54.076Z,16.08
2023-04-17T12:00:26.043Z,15.98
2023-04-17T12:02:53.686Z,16.73
2023-04-17T12:05:20.748Z,19.08
2023-04-17T12:07:47.330Z,15.48
2023-04-17T12:10:13.848Z,18.02
2023-04-17T12:12:40.448Z,14.68
2023-04-17T12:15:07.245Z,17.30
2023-04-17T12:17:34.061Z,17.63
2023-04-17T12:20:04.067Z,14.77
2023-04-17T12:22:30.682Z,18.90
2023-04-17T12:24:57.158Z,13.43
2023-04-17T12:27:23.711Z,10.43
2023-04-17T12:29:50.290Z,14.77
2023-04-17T12:32:16.878Z,12.30
2023-04-17T12:34:43.345Z,12.52
2023-04-17T12:37:09.835Z,10.68
2023-04-17T12:39:36.329Z,11.63
2023-04-17T12:42:02.782Z,11.10
2023-04-17T12:44:29.268Z,11.38
2023-04-17T12:46:55.835Z,13.63
2023-04-17T12:49:23.713Z,14.52
2023-04-17T12:51:50.355Z,14.18
2023-04-17T12:54:16.865Z,13.40
2023-04-17T12:56:43.316Z,12.65
2023-04-17T12:59:10.348Z,14.73
2023-04-17T13:01:36.982Z,10.15
2023-04-17T13:04:03.819Z,11.38
2023-04-17T13:06:30.487Z,11.93
2023-04-17T13:08:57.046Z,13.15
2023-04-17T13:11:23.534Z,12.55
2023-04-17T13:13:50.016Z,10.07
2023-04-17T13:16:16.524Z,10.68
2023-04-17T13:18:42.995Z,11.88
2023-04-17T13:21:09.561Z,9.57
2023-04-17T13:23:36.089Z,11.55
2023-04-17T13:26:02.534Z,12.27
2023-04-17T13:28:29.125Z,9.82
2023-04-17T13:30:56.005Z,10.27
2023-04-17T13:33:22.692Z,8.07
2023-04-17T13:35:50.976Z,10.20
2023-04-17T13:38:17.635Z,9.40
2023-04-17T13:40:44.124Z,10.80
2023-04-17T13:43:11.609Z,12.23
2023-04-17T13:45:38.072Z,10.02
2023-04-17T13:48:04.705Z,11.73
2023-04-17T13:50:31.392Z,7.65
2023-04-17T13:52:57.880Z,9.20
2023-04-17T13:55:25.984Z,10.05
2023-04-17T13:57:54.162Z,8.45
2023-04-17T14:00:22.068Z,10.18
2023-04-17T14:02:48.784Z,13.40
2023-04-17T14:05:15.809Z,9.13
2023-04-17T14:07:43.380Z,8.45
2023-04-17T14:10:10.116Z,8.68
2023-04-17T14:12:36.596Z,9.10
2023-04-17T14:15:03.119Z,7.68
2023-04-17T14:17:29.731Z,9.45
2023-04-17T14:19:56.272Z,8.13
2023-04-17T14:22:22.814Z,10.13
2023-04-17T14:24:49.266Z,8.23
2023-04-17T14:27:16.011Z,8.10
2023-04-17T14:29:42.499Z,6.45
2023-04-17T14:32:09.021Z,7.35
2023-04-17T14:34:35.647Z,8.75
2023-04-17T14:37:02.137Z,8.02
2023-04-17T14:39:30.837Z,14.10
2023-04-17T14:41:59.566Z,7.43
2023-04-17T14:44:27.794Z,8.05
2023-04-17T14:46:56.798Z,8.35
2023-04-17T14:49:23.468Z,10.05
2023-04-17T14:51:49.902Z,7.00
2023-04-17T14:54:16.373Z,9.50
2023-04-17T14:56:42.868Z,8.52
2023-04-17T14:59:09.374Z,7.70
2023-04-17T15:01:35.853Z,7.70
2023-04-17T15:04:03.753Z,7.85
2023-04-17T15:06:30.619Z,8.68
2023-04-17T15:08:57.076Z,8.73
2023-04-17T15:11:23.614Z,10.48
2023-04-17T15:13:52.733Z,9.15
2023-04-17T15:16:19.370Z,8.25
2023-04-17T15:18:45.847Z,7.95
2023-04-17T15:21:12.397Z,9.75
2023-04-17T15:23:38.927Z,11.27
2023-04-17T15:26:05.440Z,7.80
2023-04-17T15:28:33.119Z,9.70
2023-04-17T15:30:59.806Z,7.32
2023-04-17T15:33:26.410Z,14.25
2023-04-17T15:35:58.048Z,10.90
2023-04-17T15:38:25.036Z,11.63
2023-04-17T15:40:51.499Z,14.98
2023-04-17T15:43:18.029Z,11.88
2023-04-17T15:45:44.540Z,13.65
2023-04-17T15:48:11.090Z,10.57
2023-04-17T15:50:37.636Z,13.82
2023-04-17T15:53:04.201Z,13.63
2023-04-17T15:55:30.725Z,11.80
2023-04-17T15:57:57.176Z,10.85
2023-04-17T16:00:23.768Z,10.98
2023-04-17T16:02:52.033Z,12.55
2023-04-17T16:05:19.264Z,12.50
2023-04-17T16:07:45.952Z,10.70
2023-04-17T16:10:15.706Z,10.05
2023-04-17T16:12:43.336Z,11.25
2023-04-17T16:15:11.456Z,8.75
2023-04-17T16:17:38.046Z,7.80
2023-04-17T16:20:04.940Z,7.47
2023-04-17T16:22:31.603Z,8.10
2023-04-17T16:24:58.648Z,7.47
2023-04-17T16:27:28.342Z,8.85
2023-04-17T16:29:54.779Z,7.53
2023-04-17T16:32:22.154Z,9.25
2023-04-17T16:34:48.605Z,12.73
2023-04-17T16:37:15.109Z,10.32
2023-04-17T16:39:43.412Z,11.68
2023-04-17T16:42:09.956Z,11.05
2023-04-17T16:44:36.673Z,12.45
2023-04-17T16:49:32.767Z,12.50
2023-04-17T16:51:59.661Z,11.93
2023-04-17T16:54:26.289Z,13.63
2023-04-17T16:56:52.787Z,10.80
2023-04-17T16:59:19.340Z,12.88
2023-04-17T17:01:47.279Z,11.10
2023-04-17T17:04:13.977Z,10.30
2023-04-17T17:06:40.523Z,12.13
2023-04-17T17:09:07.118Z,12.02
2023-04-17T17:11:33.695Z,9.88
2023-04-17T17:14:00.653Z,9.68
2023-04-17T17:16:27.306Z,11.50
2023-04-17T17:18:53.802Z,12.80
2023-04-17T17:21:20.521Z,10.35
2023-04-17T17:23:47.020Z,11.82
2023-04-17T17:26:13.581Z,14.57
2023-04-17T17:28:40.131Z,13.50
2023-04-17T17:31:07.811Z,11.48
2023-04-17T17:33:34.968Z,14.68
2023-04-17T17:36:01.580Z,11.35
2023-04-17T17:38:28.739Z,14.43
2023-04-17T17:40:58.134Z,12.23
2023-04-17T17:43:24.769Z,13.00
2023-04-17T17:45:51.387Z,11.95
2023-04-17T17:48:20.266Z,12.20
2023-04-17T17:50:46.801Z,15.02
2023-04-17T17:53:13.468Z,14.02
2023-04-17T17:55:39.976Z,13.18
2023-04-17T17:58:07.465Z,15.60
2023-04-17T18:00:34.375Z,12.18
2023-04-17T18:03:01.338Z,14.15
2023-04-17T18:05:27.972Z,14.25
2023-04-17T18:07:54.499Z,15.10
2023-04-17T18:10:21.021Z,12.40
2023-04-17T18:12:47.612Z,14.27
2023-04-17T18:15:14.189Z,16.83
2023-04-17T18:17:40.737Z,19.75
2023-04-17T18:20:07.707Z,13.75
2023-04-17T18:22:34.294Z,18.65
2023-04-17T18:25:00.875Z,16.27
2023-04-17T18:27:27.409Z,17.27
2023-04-17T18:29:54.041Z,17.75
2023-04-17T18:32:20.653Z,17.38
2023-04-17T18:34:49.253Z,17.30
2023-04-17T18:37:18.010Z,16.17
2023-04-17T18:39:44.845Z,16.65
2023-04-17T18:42:11.449Z,17.45
2023-04-17T18:44:38.116Z,18.88
2023-04-17T18:47:04.788Z,19.77
2023-04-17T18:49:31.425Z,18.48
2023-04-17T18:51:58.087Z,15.30
2023-04-17T18:54:24.709Z,19.13
2023-04-17T18:56:51.334Z,18.40
2023-04-17T18:59:19.920Z,15.95
2023-04-17T19:01:46.574Z,17.52
2023-04-17T19:04:13.297Z,17.83
2023-04-17T19:06:40.293Z,17.88
2023-04-17T19:09:06.836Z,16.63
2023-04-17T19:11:33.572Z,14.38
2023-04-17T19:14:00.043Z,18.70
2023-04-17T19:16:26.874Z,17.88
2023-04-17T19:18:53.519Z,17.92
2023-04-17T19:21:20.082Z,16.65
2023-04-17T19:23:47.483Z,16.55
2023-04-17T19:26:15.808Z,18.52
2023-04-17T19:28:42.428Z,18.30
2023-04-17T19:31:09.341Z,18.75
2023-04-17T19:33:35.973Z,19.77
2023-04-17T19:36:05.569Z,22.58
2023-04-17T19:38:32.252Z,21.40
2023-04-17T19:41:20.066Z,21.27
2023-04-17T19:43:47.299Z,26.95
2023-04-17T19:46:13.969Z,20.17
2023-04-17T19:48:42.175Z,21.92
2023-04-17T19:51:08.696Z,19.23
2023-04-17T19:53:36.062Z,16.85
2023-04-17T19:56:03.599Z,18.48
2023-04-17T19:58:30.722Z,17.50
2023-04-17T20:00:58.418Z,25.67
2023-04-17T20:03:26.091Z,21.85
2023-04-17T20:05:52.982Z,17.70
2023-04-17T20:08:19.660Z,17.25
2023-04-17T20:10:46.162Z,16.40
2023-04-17T20:13:12.881Z,21.83
2023-04-17T20:15:39.891Z,22.10
2023-04-17T20:18:07.125Z,20.92
2023-04-17T20:20:36.130Z,20.52
2023-04-17T20:23:03.207Z,22.33
2023-04-17T20:25:29.769Z,25.98
2023-04-17T20:27:56.747Z,39.25
2023-04-17T20:30:23.627Z,27.05
2023-04-17T20:32:50.349Z,23.48
2023-04-17T20:35:17.825Z,21.58
2023-04-17T20:37:44.653Z,21.20
2023-04-17T20:40:13.892Z,23.27
2023-04-17T20:42:41.198Z,23.20
2023-04-17T20:45:08.124Z,27.60
2023-04-17T20:47:35.078Z,22.73
2023-04-17T20:50:01.901Z,24.40
2023-04-17T20:52:28.403Z,24.50
2023-04-17T20:54:55.868Z,29.30
2023-04-17T20:57:24.217Z,27.38
2023-04-17T20:59:50.964Z,26.20
2023-04-17T21:02:17.616Z,21.98
2023-04-17T21:04:44.253Z,23.80
2023-04-17T21:07:10.854Z,24.25
2023-04-17T21:09:37.395Z,20.67
2023-04-17T21:12:04.343Z,21.67
2023-04-17T21:14:33.806Z,19.20
2023-04-17T21:17:00.347Z,18.25
2023-04-17T21:19:30.867Z,16.60
2023-04-17T21:21:58.022Z,16.48
2023-04-17T21:24:24.873Z,18.35
2023-04-17T21:26:51.448Z,24.73
2023-04-17T21:29:17.933Z,23.60
2023-04-17T21:31:44.655Z,16.52
2023-04-17T21:34:11.226Z,19.20
2023-04-17T21:36:37.941Z,16.40
2023-04-17T21:39:04.375Z,13.95
2023-04-17T21:41:31.859Z,17.42
2023-04-17T21:44:02.659Z,14.38
2023-04-17T21:46:29.392Z,20.15
2023-04-17T21:48:56.026Z,19.33
2023-04-17T21:51:22.741Z,14.15
2023-04-17T21:53:51.407Z,14.07
2023-04-17T21:56:17.939Z,13.70
2023-04-17T21:58:44.439Z,13.13
2023-04-17T22:01:11.011Z,13.40
2023-04-17T22:03:37.601Z,11.25
2023-04-17T22:06:04.269Z,10.93
2023-04-17T22:08:30.795Z,11.52
2023-04-17T22:10:57.322Z,11.18
2023-04-17T22:13:23.842Z,12.93
2023-04-17T22:15:51.327Z,32.25
2023-04-17T22:18:17.804Z,14.68
2023-04-17T22:20:44.365Z,10.77
2023-04-17T22:23:10.934Z,12.23
2023-04-17T22:25:37.626Z,10.82
2023-04-17T22:28:04.187Z,14.02
2023-04-17T22:30:30.640Z,15.10
2023-04-17T22:32:57.394Z,16.60
2023-04-17T22:35:24.370Z,9.95
2023-04-17T22:37:50.874Z,10.27
2023-04-17T22:40:17.462Z,10.98
2023-04-17T22:42:43.919Z,10.50
2023-04-17T22:45:10.536Z,10.70
2023-04-17T22:47:37.269Z,11.75
2023-04-17T22:50:04.181Z,11.93
2023-04-17T22:52:30.676Z,10.88
2023-04-17T22:54:57.279Z,11.23
2023-04-17T22:57:23.882Z,13.82
2023-04-17T22:59:50.458Z,11.57
2023-04-17T23:02:17.495Z,13.38
2023-04-17T23:04:44.119Z,10.75
2023-04-17T23:07:10.639Z,13.68
2023-04-17T23:09:37.104Z,11.45
2023-04-17T23:12:03.867Z,9.90
2023-04-17T23:14:30.410Z,11.63
2023-04-17T23:16:56.899Z,12.40
2023-04-17T23:19:23.429Z,11.93
2023-04-17T23:21:49.969Z,13.95
2023-04-17T23:24:16.651Z,10.98
2023-04-17T23:26:43.081Z,10.27
2023-04-17T23:29:09.586Z,10.70
2023-04-17T23:31:38.963Z,11.63
2023-04-17T23:34:05.607Z,13.40
2023-04-17T23:36:32.290Z,13.82
2023-04-17T23:38:58.756Z,12.05
2023-04-17T23:41:26.671Z,12.90
2023-04-17T23:43:55.915Z,14.07
2023-04-17T23:46:22.467Z,10.80
2023-04-17T23:48:49.052Z,10.13
2023-04-17T23:51:15.635Z,16.45
2023-04-17T23:53:42.105Z,16.02
2023-04-17T23:56:08.592Z,13.93
2023-04-17T23:58:35.075Z,12.07
